MSC Poesia — 3EPL4 — position and weather

sailwx.info

Track history (hours):
 
Tides and Currents Weather Stations Pressure Air Temp Water Temp Dewpoint Dewpoint Depression Visibility Wind Speed Wind Dir Waves Ship Positions

MSC Poesia

Last reported at 2018-Apr-22 23:17 UTC. Time now 2018-Apr-23 21:10 UTC.
Position N 37°07' E 015°49'.

Length 294 m; draft 7.8 m.

Type: Ship. MMSI: 355931000.

Date/timePositionNaut miles runAvg speedWind from/ knotsBaromVisibWave heightAir tempDewpointWater temp
2018-Apr-22 23:17N 37°07' E 015°49'96 5.2
2018-Apr-22 04:56N 35°54' E 014°31'3 7.6
2018-Apr-22 04:28N 35°57' E 014°32'817.3
2018-Apr-22 04:00N 36°05' E 014°29'1020.1
2018-Apr-22 03:30N 36°14' E 014°25'1020.2
2018-Apr-22 03:00N 36°24' E 014°21'1121.5
2018-Apr-22 02:30N 36°34' E 014°18'1422.6
2018-Apr-22 01:53N 36°43' E 014°04'716.7
2018-Apr-22 01:29N 36°47' E 013°57'50520.7
2018-Apr-21 01:07N 38°60' E 003°40'321.0
2018-Apr-21 00:59N 39°00' E 003°37'1121.0
2018-Apr-21 00:29N 39°02' E 003°24'1021.0
2018-Apr-21 00:00N 39°04' E 003°11'1020.8
2018-Apr-20 23:30N 39°05' E 002°58'1020.6
2018-Apr-20 23:00N 39°08' E 002°45'1121.6
2018-Apr-20 22:30N 39°19' E 002°42'1021.3
2018-Apr-20 22:00N 39°29' E 002°39'4 7.9
2018-Apr-20 21:30N 39°33' E 002°38'0 0.0
2018-Apr-20 21:00N 39°33' E 002°38'0 0.0
2018-Apr-20 20:30N 39°33' E 002°38'0 0.0
2018-Apr-20 20:00N 39°33' E 002°38'0 0.0
2018-Apr-20 19:30N 39°33' E 002°38'0 0.0
2018-Apr-20 19:00N 39°33' E 002°38'0 0.0
2018-Apr-20 18:29N 39°33' E 002°38'0 0.0
2018-Apr-20 17:59N 39°33' E 002°38'0 0.0
2018-Apr-20 17:30N 39°33' E 002°38'0 0.0
2018-Apr-20 16:58N 39°33' E 002°38'0 0.0
2018-Apr-20 16:28N 39°33' E 002°38'0 0.0
2018-Apr-20 15:58N 39°33' E 002°38'0 0.0
2018-Apr-20 15:28N 39°33' E 002°38'0 0.0
2018-Apr-20 14:55N 39°33' E 002°38'0 0.0
2018-Apr-20 14:28N 39°33' E 002°38'0 0.0
2018-Apr-20 13:58N 39°33' E 002°38'0 0.0
2018-Apr-20 13:28N 39°33' E 002°38'0 0.0
2018-Apr-20 12:58N 39°33' E 002°38'0 0.0
2018-Apr-20 12:28N 39°33' E 002°38'0 0.0
2018-Apr-20 11:58N 39°33' E 002°38'0 0.0
2018-Apr-20 11:28N 39°33' E 002°38'0 0.0
2018-Apr-20 10:58N 39°33' E 002°38'0 0.0
2018-Apr-20 10:30N 39°33' E 002°38'2 3.0
2018-Apr-20 10:00N 39°32' E 002°39'816.2
2018-Apr-20 09:30N 39°25' E 002°32'917.8
2018-Apr-20 09:00N 39°18' E 002°25'917.7
2018-Apr-20 08:30N 39°12' E 002°18'15420.0
2018-Apr-20 00:48N 37°32' W 000°12'721.2
2018-Apr-20 00:27N 37°27' W 000°19'2121.1
2018-Apr-19 23:26N 37°15' W 000°41'230 9.6
2018-Apr-18 23:30N 36°03' W 005°14'612.7
2018-Apr-18 23:00N 35°60' W 005°20'714.1
2018-Apr-18 22:30N 35°58' W 005°29'64012.9
2018-Apr-16 20:58N 29°13' W 015°17'919.0
2018-Apr-16 20:31N 29°06' W 015°24'2119.4
2018-Apr-16 19:24N 28°52' W 015°42'1519.6
2018-Apr-16 18:39N 28°41' W 015°54'320.8
2018-Apr-16 18:29N 28°39' W 015°57'1020.3
2018-Apr-16 18:01N 28°32' W 016°05'816.6
2018-Apr-16 17:31N 28°28' W 016°13'1 2.9
2018-Apr-16 17:00N 28°28' W 016°15'0 0.0
2018-Apr-16 16:30N 28°28' W 016°15'0 0.0
2018-Apr-16 16:00N 28°28' W 016°15'0 0.0
2018-Apr-16 15:29N 28°28' W 016°15'0 0.0
2018-Apr-16 14:59N 28°28' W 016°15'0 0.0
2018-Apr-16 14:29N 28°28' W 016°15'0 0.0
2018-Apr-16 13:59N 28°28' W 016°15'0 0.0
2018-Apr-16 13:29N 28°28' W 016°15'0 0.0
2018-Apr-16 12:59N 28°28' W 016°15'0 0.0
2018-Apr-16 12:30N 28°28' W 016°15'0 0.0
2018-Apr-16 11:58N 28°28' W 016°15'0 0.0
2018-Apr-16 11:28N 28°28' W 016°15'0 0.0
2018-Apr-16 11:00N 28°28' W 016°15'0 0.0
2018-Apr-16 10:30N 28°28' W 016°15'0 0.0
2018-Apr-16 10:00N 28°28' W 016°15'0 0.0
2018-Apr-16 09:30N 28°28' W 016°15'1 0.5
2018-Apr-16 06:36N 28°28' W 016°13'0 4.4
2018-Apr-16 06:30N 28°28' W 016°13'5 9.5
2018-Apr-16 06:00N 28°23' W 016°15'916.8
2018-Apr-16 05:30N 28°15' W 016°19'  
Track history (hours):
 
Tides and Currents Weather Stations Pressure Air Temp Water Temp Dewpoint Dewpoint Depression Visibility Wind Speed Wind Dir Waves Ship Positions

MSC Poesia

Last reported at 2018-Apr-22 23:17 UTC. Time now 2018-Apr-23 21:10 UTC.
Position N 37°07' E 015°49'.

Length 294 m; draft 7.8 m.

Type: Ship. MMSI: 355931000.

Date/timePositionNaut miles runAvg speedWind from/ knotsBaromVisibWave heightAir tempDewpointWater temp
2018-Apr-22 23:17N 37°07' E 015°49'96 5.2
2018-Apr-22 04:56N 35°54' E 014°31'3 7.6
2018-Apr-22 04:28N 35°57' E 014°32'817.3
2018-Apr-22 04:00N 36°05' E 014°29'1020.1
2018-Apr-22 03:30N 36°14' E 014°25'1020.2
2018-Apr-22 03:00N 36°24' E 014°21'1121.5
2018-Apr-22 02:30N 36°34' E 014°18'1422.6
2018-Apr-22 01:53N 36°43' E 014°04'716.7
2018-Apr-22 01:29N 36°47' E 013°57'50520.7
2018-Apr-21 01:07N 38°60' E 003°40'321.0
2018-Apr-21 00:59N 39°00' E 003°37'1121.0
2018-Apr-21 00:29N 39°02' E 003°24'1021.0
2018-Apr-21 00:00N 39°04' E 003°11'1020.8
2018-Apr-20 23:30N 39°05' E 002°58'1020.6
2018-Apr-20 23:00N 39°08' E 002°45'1121.6
2018-Apr-20 22:30N 39°19' E 002°42'1021.3
2018-Apr-20 22:00N 39°29' E 002°39'4 7.9
2018-Apr-20 21:30N 39°33' E 002°38'0 0.0
2018-Apr-20 21:00N 39°33' E 002°38'0 0.0
2018-Apr-20 20:30N 39°33' E 002°38'0 0.0
2018-Apr-20 20:00N 39°33' E 002°38'0 0.0
2018-Apr-20 19:30N 39°33' E 002°38'0 0.0
2018-Apr-20 19:00N 39°33' E 002°38'0 0.0
2018-Apr-20 18:29N 39°33' E 002°38'0 0.0
2018-Apr-20 17:59N 39°33' E 002°38'0 0.0
2018-Apr-20 17:30N 39°33' E 002°38'0 0.0
2018-Apr-20 16:58N 39°33' E 002°38'0 0.0
2018-Apr-20 16:28N 39°33' E 002°38'0 0.0
2018-Apr-20 15:58N 39°33' E 002°38'0 0.0
2018-Apr-20 15:28N 39°33' E 002°38'0 0.0
2018-Apr-20 14:55N 39°33' E 002°38'0 0.0
2018-Apr-20 14:28N 39°33' E 002°38'0 0.0
2018-Apr-20 13:58N 39°33' E 002°38'0 0.0
2018-Apr-20 13:28N 39°33' E 002°38'0 0.0
2018-Apr-20 12:58N 39°33' E 002°38'0 0.0
2018-Apr-20 12:28N 39°33' E 002°38'0 0.0
2018-Apr-20 11:58N 39°33' E 002°38'0 0.0
2018-Apr-20 11:28N 39°33' E 002°38'0 0.0
2018-Apr-20 10:58N 39°33' E 002°38'0 0.0
2018-Apr-20 10:30N 39°33' E 002°38'2 3.0
2018-Apr-20 10:00N 39°32' E 002°39'816.2
2018-Apr-20 09:30N 39°25' E 002°32'917.8
2018-Apr-20 09:00N 39°18' E 002°25'917.7
2018-Apr-20 08:30N 39°12' E 002°18'15420.0
2018-Apr-20 00:48N 37°32' W 000°12'721.2
2018-Apr-20 00:27N 37°27' W 000°19'2121.1
2018-Apr-19 23:26N 37°15' W 000°41'230 9.6
2018-Apr-18 23:30N 36°03' W 005°14'612.7
2018-Apr-18 23:00N 35°60' W 005°20'714.1
2018-Apr-18 22:30N 35°58' W 005°29'64012.9
2018-Apr-16 20:58N 29°13' W 015°17'919.0
2018-Apr-16 20:31N 29°06' W 015°24'2119.4
2018-Apr-16 19:24N 28°52' W 015°42'1519.6
2018-Apr-16 18:39N 28°41' W 015°54'320.8
2018-Apr-16 18:29N 28°39' W 015°57'1020.3
2018-Apr-16 18:01N 28°32' W 016°05'816.6
2018-Apr-16 17:31N 28°28' W 016°13'1 2.9
2018-Apr-16 17:00N 28°28' W 016°15'0 0.0
2018-Apr-16 16:30N 28°28' W 016°15'0 0.0
2018-Apr-16 16:00N 28°28' W 016°15'0 0.0
2018-Apr-16 15:29N 28°28' W 016°15'0 0.0
2018-Apr-16 14:59N 28°28' W 016°15'0 0.0
2018-Apr-16 14:29N 28°28' W 016°15'0 0.0
2018-Apr-16 13:59N 28°28' W 016°15'0 0.0
2018-Apr-16 13:29N 28°28' W 016°15'0 0.0
2018-Apr-16 12:59N 28°28' W 016°15'0 0.0
2018-Apr-16 12:30N 28°28' W 016°15'0 0.0
2018-Apr-16 11:58N 28°28' W 016°15'0 0.0
2018-Apr-16 11:28N 28°28' W 016°15'0 0.0
2018-Apr-16 11:00N 28°28' W 016°15'0 0.0
2018-Apr-16 10:30N 28°28' W 016°15'0 0.0
2018-Apr-16 10:00N 28°28' W 016°15'0 0.0
2018-Apr-16 09:30N 28°28' W 016°15'1 0.5
2018-Apr-16 06:36N 28°28' W 016°13'0 4.4
2018-Apr-16 06:30N 28°28' W 016°13'5 9.5
2018-Apr-16 06:00N 28°23' W 016°15'916.8
2018-Apr-16 05:30N 28°15' W 016°19'  

Dump ship's entire track history